createdAt,value
2019-06-01T00:02:47.869Z,21.30
2019-06-01T00:05:44.860Z,21.30
2019-06-01T00:08:56.645Z,21.30
2019-06-01T00:11:26.565Z,21.30
2019-06-01T00:14:03.827Z,21.20
2019-06-01T00:16:35.765Z,21.20
2019-06-01T00:19:08.863Z,21.20
2019-06-01T00:21:43.230Z,21.20
2019-06-01T00:24:18.433Z,21.10
2019-06-01T00:27:00.496Z,21.10
2019-06-01T00:29:34.706Z,21.10
2019-06-01T00:32:10.978Z,21.10
2019-06-01T00:34:52.711Z,21.10
2019-06-01T00:37:24.771Z,21.10
2019-06-01T00:39:55.187Z,21.00
2019-06-01T00:42:38.161Z,21.00
2019-06-01T00:45:08.871Z,21.00
2019-06-01T00:47:38.542Z,21.00
2019-06-01T00:50:07.979Z,20.90
2019-06-01T00:52:37.652Z,20.90
2019-06-01T00:55:07.223Z,20.90
2019-06-01T00:57:45.581Z,20.90
2019-06-01T01:00:15.011Z,20.90
2019-06-01T01:02:44.087Z,20.90
2019-06-01T01:05:17.720Z,20.90
2019-06-01T01:07:46.720Z,20.80
2019-06-01T01:10:16.344Z,20.80
2019-06-01T01:13:06.673Z,20.80
2019-06-01T01:15:36.359Z,20.80
2019-06-01T01:18:07.030Z,20.80
2019-06-01T01:20:37.489Z,20.80
2019-06-01T01:23:07.870Z,20.70
2019-06-01T01:25:36.976Z,20.80
2019-06-01T01:28:06.329Z,20.70
2019-06-01T01:30:35.292Z,20.70
2019-06-01T01:33:04.555Z,20.70
2019-06-01T01:35:33.667Z,20.70
2019-06-01T01:38:02.747Z,20.70
2019-06-01T01:40:32.314Z,20.70
2019-06-01T01:43:01.506Z,20.70
2019-06-01T01:45:30.633Z,20.70
2019-06-01T01:48:01.296Z,20.60
2019-06-01T01:50:30.905Z,20.60
2019-06-01T01:53:00.159Z,20.60
2019-06-01T01:55:29.541Z,20.60
2019-06-01T01:57:59.550Z,20.60
2019-06-01T02:00:44.527Z,20.60
2019-06-01T02:03:13.852Z,20.60
2019-06-01T02:05:43.307Z,20.60
2019-06-01T02:08:12.369Z,20.50
2019-06-01T02:10:41.733Z,20.50
2019-06-01T02:13:10.976Z,20.50
2019-06-01T02:15:41.311Z,20.50
2019-06-01T02:18:10.861Z,20.50
2019-06-01T02:20:39.978Z,20.40
2019-06-01T02:23:09.118Z,20.50
2019-06-01T02:25:38.309Z,20.50
2019-06-01T02:28:08.680Z,20.50
2019-06-01T02:30:37.736Z,20.40
2019-06-01T02:33:06.934Z,20.40
2019-06-01T02:35:36.087Z,20.40
2019-06-01T02:38:05.970Z,20.40
2019-06-01T02:40:35.484Z,20.40
2019-06-01T02:43:06.572Z,20.40
2019-06-01T02:45:35.583Z,20.40
2019-06-01T02:48:06.364Z,20.40
2019-06-01T02:50:35.909Z,20.40
2019-06-01T02:53:05.766Z,20.30
2019-06-01T02:55:34.983Z,20.30
2019-06-01T02:58:04.417Z,20.30
2019-06-01T03:01:13.095Z,20.30
2019-06-01T03:03:42.610Z,20.30
2019-06-01T03:06:14.911Z,20.30
2019-06-01T03:08:45.435Z,20.30
2019-06-01T03:11:15.985Z,20.30
2019-06-01T03:13:48.731Z,20.20
2019-06-01T03:16:21.070Z,20.30
2019-06-01T03:18:52.336Z,20.30
2019-06-01T03:21:24.437Z,20.20
2019-06-01T03:23:56.835Z,20.20
2019-06-01T03:26:29.058Z,20.20
2019-06-01T03:29:03.217Z,20.20
2019-06-01T03:31:32.312Z,20.20
2019-06-01T03:34:04.427Z,20.20
2019-06-01T03:36:33.367Z,20.20
2019-06-01T03:39:04.008Z,20.10
2019-06-01T03:41:33.361Z,20.10
2019-06-01T03:44:02.884Z,20.10
2019-06-01T03:46:32.251Z,20.10
2019-06-01T03:49:03.621Z,20.10
2019-06-01T03:51:32.902Z,20.10
2019-06-01T03:54:05.022Z,20.10
2019-06-01T03:56:33.758Z,20.10
2019-06-01T03:59:03.033Z,20.10
2019-06-01T04:01:32.414Z,20.10
2019-06-01T04:04:03.039Z,20.10
2019-06-01T04:06:32.354Z,20.10
2019-06-01T04:09:01.612Z,20.10
2019-06-01T04:11:30.787Z,20.00
2019-06-01T04:13:59.836Z,20.10
2019-06-01T04:16:28.884Z,20.10
2019-06-01T04:18:58.654Z,20.10
2019-06-01T04:21:27.907Z,20.10
2019-06-01T04:23:57.177Z,20.10
2019-06-01T04:26:27.722Z,20.10
2019-06-01T04:28:57.011Z,20.10
2019-06-01T04:31:26.141Z,20.10
2019-06-01T04:33:55.454Z,20.10
2019-06-01T04:36:24.762Z,20.20
2019-06-01T04:38:56.985Z,20.20
2019-06-01T04:41:26.162Z,20.20
2019-06-01T04:43:55.310Z,20.20
2019-06-01T04:46:24.600Z,20.20
2019-06-01T04:48:54.518Z,20.30
2019-06-01T04:51:23.798Z,20.30
2019-06-01T04:53:53.795Z,20.30
2019-06-01T04:56:23.116Z,20.30
2019-06-01T04:58:52.832Z,20.40
2019-06-01T05:01:22.046Z,20.30
2019-06-01T05:03:54.253Z,20.40
2019-06-01T05:06:23.744Z,20.40
2019-06-01T05:08:53.111Z,20.50
2019-06-01T05:11:22.243Z,20.50
2019-06-01T05:13:51.294Z,20.60
2019-06-01T05:16:20.707Z,20.60
2019-06-01T05:18:50.085Z,20.60
2019-06-01T05:21:19.760Z,20.70
2019-06-01T05:23:49.272Z,20.70
2019-06-01T05:26:20.508Z,20.80
2019-06-01T05:28:50.936Z,20.90
2019-06-01T05:31:25.067Z,20.90
2019-06-01T05:33:55.859Z,21.00
2019-06-01T05:36:25.116Z,21.00
2019-06-01T05:38:54.638Z,21.00
2019-06-01T05:41:24.459Z,21.00
2019-06-01T05:43:53.860Z,21.10
2019-06-01T05:46:23.226Z,21.10
2019-06-01T05:48:52.613Z,21.10
2019-06-01T05:51:22.980Z,21.20
2019-06-01T05:53:53.818Z,21.20
2019-06-01T05:56:52.215Z,21.30
2019-06-01T06:00:17.769Z,21.30
2019-06-01T06:03:40.630Z,21.30
2019-06-01T06:06:13.774Z,21.30
2019-06-01T06:08:53.910Z,21.40
2019-06-01T06:11:38.442Z,21.40
2019-06-01T06:14:24.370Z,21.40
2019-06-01T06:17:44.812Z,21.40
2019-06-01T06:20:20.179Z,21.50
2019-06-01T06:22:58.812Z,21.50
2019-06-01T06:25:45.974Z,21.50
2019-06-01T06:28:37.528Z,21.50
2019-06-01T06:31:12.944Z,21.50
2019-06-01T06:34:10.017Z,21.50
2019-06-01T06:36:45.509Z,21.60
2019-06-01T07:01:39.067Z,21.60
2019-06-01T07:07:59.175Z,21.60
2019-06-01T07:10:29.297Z,21.60
2019-06-01T07:13:09.130Z,21.70
2019-06-01T07:15:40.088Z,21.70
2019-06-01T07:18:10.498Z,21.80
2019-06-01T07:20:46.350Z,21.80
2019-06-01T07:27:22.459Z,21.80
2019-06-01T07:30:50.435Z,21.80
2019-06-01T07:36:42.980Z,21.90
2019-06-01T07:39:18.855Z,22.00
2019-06-01T07:42:13.452Z,22.00
2019-06-01T07:44:47.968Z,22.10
2019-06-01T07:47:29.257Z,22.10
2019-06-01T07:50:28.889Z,22.10
2019-06-01T07:53:17.243Z,22.10
2019-06-01T07:55:50.871Z,22.20
2019-06-01T07:58:23.161Z,22.30
2019-06-01T08:00:54.056Z,22.30
2019-06-01T08:03:32.855Z,22.40
2019-06-01T08:06:07.358Z,22.40
2019-06-01T08:08:44.301Z,22.40
2019-06-01T08:11:16.947Z,22.40
2019-06-01T08:13:57.089Z,22.50
2019-06-01T08:16:33.886Z,22.50
2019-06-01T08:19:14.843Z,22.60
2019-06-01T08:21:46.120Z,22.60
2019-06-01T08:24:16.411Z,22.60
2019-06-01T08:26:47.835Z,22.60
2019-06-01T08:29:17.673Z,22.60
2019-06-01T08:31:47.453Z,22.60
2019-06-01T08:34:19.022Z,22.70
2019-06-01T08:36:49.189Z,22.70
2019-06-01T08:39:23.592Z,22.70
2019-06-01T08:42:00.513Z,22.70
2019-06-01T08:44:31.694Z,22.80
2019-06-01T08:47:27.856Z,22.80
2019-06-01T08:50:27.771Z,22.70
2019-06-01T08:52:59.185Z,22.70
2019-06-01T08:55:36.474Z,22.70
2019-06-01T09:02:08.800Z,22.70
2019-06-01T09:04:45.403Z,22.70
2019-06-01T09:07:24.952Z,22.70
2019-06-01T09:10:20.193Z,22.80
2019-06-01T09:13:02.952Z,22.80
2019-06-01T09:15:37.789Z,22.80
2019-06-01T09:18:13.213Z,22.80
2019-06-01T09:20:49.331Z,22.90
2019-06-01T09:23:22.522Z,22.90
2019-06-01T09:25:52.790Z,22.90
2019-06-01T09:28:29.901Z,23.00
2019-06-01T09:31:06.097Z,23.00
2019-06-01T09:33:45.094Z,23.00
2019-06-01T09:36:20.618Z,23.00
2019-06-01T09:38:57.795Z,23.00
2019-06-01T09:42:03.283Z,23.10
2019-06-01T09:44:40.495Z,23.10
2019-06-01T09:47:16.716Z,23.10
2019-06-01T09:49:51.799Z,23.10
2019-06-01T09:52:23.810Z,23.20
2019-06-01T09:55:23.414Z,23.20
2019-06-01T09:57:53.279Z,23.30
2019-06-01T10:00:30.253Z,23.30
2019-06-01T10:03:14.177Z,23.30
2019-06-01T10:06:01.310Z,23.30
2019-06-01T10:08:20.279Z,23.40
2019-06-01T10:10:50.717Z,23.50
2019-06-01T10:13:23.955Z,23.60
2019-06-01T10:15:59.385Z,23.60
2019-06-01T10:18:30.882Z,23.60
2019-06-01T10:21:02.709Z,23.60
2019-06-01T10:23:42.829Z,23.60
2019-06-01T10:26:17.695Z,23.70
2019-06-01T10:28:55.248Z,23.90
2019-06-01T10:31:34.980Z,24.00
2019-06-01T10:34:22.248Z,24.10
2019-06-01T10:36:51.950Z,24.10
2019-06-01T10:39:35.282Z,24.10
2019-06-01T10:42:21.481Z,24.10
2019-06-01T10:45:03.185Z,24.10
2019-06-01T10:50:57.073Z,24.10
2019-06-01T10:53:41.179Z,24.20
2019-06-01T10:56:12.678Z,24.20
2019-06-01T10:58:58.997Z,24.20
2019-06-01T11:01:20.396Z,24.20
2019-06-01T11:04:03.758Z,24.20
2019-06-01T11:06:48.576Z,24.10
2019-06-01T11:09:36.932Z,24.20
2019-06-01T11:12:14.752Z,24.20
2019-06-01T11:14:47.793Z,24.20
2019-06-01T11:17:22.253Z,24.30
2019-06-01T11:20:26.190Z,24.40
2019-06-01T11:23:03.204Z,24.50
2019-06-01T11:25:39.634Z,24.50
2019-06-01T11:28:22.545Z,24.60
2019-06-01T11:30:57.598Z,24.60
2019-06-01T11:33:38.249Z,24.60
2019-06-01T11:36:31.129Z,24.60
2019-06-01T11:39:16.897Z,24.60
2019-06-01T11:41:46.519Z,24.70
2019-06-01T11:44:24.386Z,24.80
2019-06-01T11:47:03.477Z,24.80
2019-06-01T11:49:38.685Z,24.90
2019-06-01T11:52:12.556Z,24.80
2019-06-01T11:54:46.190Z,24.80
2019-06-01T11:57:35.258Z,24.80
2019-06-01T12:00:19.375Z,24.80
2019-06-01T12:02:52.272Z,24.90
2019-06-01T12:05:32.068Z,25.00
2019-06-01T12:08:03.921Z,25.00
2019-06-01T12:10:41.093Z,25.10
2019-06-01T12:13:34.063Z,25.20
2019-06-01T12:16:26.066Z,25.20
2019-06-01T12:22:03.769Z,25.20
2019-06-01T12:24:48.632Z,25.20
2019-06-01T12:27:22.982Z,25.30
2019-06-01T12:30:06.226Z,25.30
2019-06-01T12:32:39.855Z,25.40
2019-06-01T12:42:44.082Z,25.50
2019-06-01T12:45:10.329Z,25.50
2019-06-01T12:47:55.139Z,25.60
2019-06-01T12:50:28.569Z,25.60
2019-06-01T12:52:58.738Z,25.70
2019-06-01T12:55:40.535Z,25.70
2019-06-01T12:58:11.403Z,25.70
2019-06-01T13:00:48.261Z,25.80
2019-06-01T13:06:24.034Z,25.90
2019-06-01T13:08:55.780Z,25.80
2019-06-01T13:11:25.592Z,25.90
2019-06-01T13:13:57.989Z,25.90
2019-06-01T13:16:33.579Z,25.90
2019-06-01T13:19:10.754Z,26.00
2019-06-01T13:22:02.859Z,26.00
2019-06-01T13:24:51.903Z,26.00
2019-06-01T13:27:27.570Z,26.10
2019-06-01T13:30:08.066Z,26.10
2019-06-01T13:32:42.564Z,26.20
2019-06-01T13:36:13.164Z,26.20
2019-06-01T13:39:23.687Z,26.30
2019-06-01T13:41:55.811Z,26.30
2019-06-01T13:44:25.471Z,26.30
2019-06-01T13:47:04.789Z,26.30
2019-06-01T13:49:48.394Z,26.30
2019-06-01T13:52:26.900Z,26.30
2019-06-01T13:54:56.614Z,26.30
2019-06-01T13:57:27.193Z,26.30
2019-06-01T13:59:57.049Z,26.40
2019-06-01T14:02:27.658Z,26.40
2019-06-01T14:04:56.741Z,26.50
2019-06-01T14:07:26.370Z,26.50
2019-06-01T14:09:55.881Z,26.50
2019-06-01T14:12:25.146Z,26.50
2019-06-01T14:14:57.158Z,26.60
2019-06-01T14:17:27.151Z,26.60
2019-06-01T14:19:56.479Z,26.70
2019-06-01T14:22:25.654Z,26.70
2019-06-01T14:25:11.863Z,26.70
2019-06-01T14:27:30.749Z,26.80
2019-06-01T14:30:01.500Z,26.90
2019-06-01T14:32:30.738Z,26.90
2019-06-01T14:34:59.843Z,27.00
2019-06-01T14:37:29.149Z,27.00
2019-06-01T14:39:59.853Z,27.10
2019-06-01T14:42:29.253Z,27.20
2019-06-01T14:44:58.588Z,27.30
2019-06-01T14:47:28.045Z,27.40
2019-06-01T14:49:57.769Z,27.40
2019-06-01T14:52:27.064Z,27.50
2019-06-01T14:54:57.985Z,27.60
2019-06-01T14:57:27.412Z,27.60
2019-06-01T14:59:56.767Z,27.60
2019-06-01T15:02:25.970Z,27.70
2019-06-01T15:04:56.412Z,27.70
2019-06-01T15:07:25.741Z,27.80
2019-06-01T15:09:55.019Z,27.90
2019-06-01T15:13:03.560Z,27.90
2019-06-01T15:15:33.603Z,28.00
2019-06-01T15:18:41.395Z,28.00
2019-06-01T15:21:11.270Z,28.00
2019-06-01T15:23:40.834Z,28.00
2019-06-01T15:26:12.280Z,28.10
2019-06-01T15:28:41.508Z,28.10
2019-06-01T15:31:11.073Z,28.10
2019-06-01T15:33:41.752Z,28.20
2019-06-01T15:36:11.324Z,28.20
2019-06-01T15:38:40.559Z,28.20
2019-06-01T15:41:13.180Z,28.20
2019-06-01T15:43:49.127Z,28.20
2019-06-01T15:46:18.184Z,28.20
2019-06-01T15:48:47.438Z,28.20
2019-06-01T15:51:17.589Z,28.30
2019-06-01T15:53:50.040Z,28.40
2019-06-01T15:56:24.558Z,28.40
2019-06-01T15:58:56.935Z,28.50
2019-06-01T16:01:38.502Z,28.70
2019-06-01T16:04:07.716Z,29.50
2019-06-01T16:06:37.500Z,31.30
2019-06-01T16:09:07.580Z,32.40
2019-06-01T16:11:37.746Z,32.60
2019-06-01T16:14:07.287Z,32.20
2019-06-01T16:16:36.418Z,31.50
2019-06-01T16:19:07.957Z,30.90
2019-06-01T16:21:37.069Z,30.50
2019-06-01T16:24:07.694Z,30.10
2019-06-01T16:26:36.751Z,29.70
2019-06-01T16:29:06.209Z,29.40
2019-06-01T16:31:35.911Z,29.20
2019-06-01T16:34:05.435Z,29.00
2019-06-01T16:36:35.233Z,28.90
2019-06-01T16:39:08.819Z,28.70
2019-06-01T16:41:37.982Z,28.60
2019-06-01T16:44:08.433Z,28.50
2019-06-01T16:46:37.774Z,28.40
2019-06-01T16:49:07.095Z,28.40
2019-06-01T16:51:56.762Z,28.30
2019-06-01T16:54:26.440Z,28.20
2019-06-01T16:56:55.968Z,28.10
2019-06-01T16:59:25.298Z,28.00
2019-06-01T17:01:54.824Z,28.00
2019-06-01T17:04:24.013Z,27.90
2019-06-01T17:06:53.546Z,27.90
2019-06-01T17:09:22.697Z,27.80
2019-06-01T17:11:52.069Z,27.80
2019-06-01T17:14:21.664Z,27.80
2019-06-01T17:16:50.989Z,27.70
2019-06-01T17:19:20.291Z,27.60
2019-06-01T17:21:49.589Z,27.60
2019-06-01T17:24:18.731Z,27.60
2019-06-01T17:26:48.345Z,27.50
2019-06-01T17:29:18.225Z,27.50
2019-06-01T17:31:54.459Z,27.40
2019-06-01T17:34:18.309Z,27.50
2019-06-01T17:36:47.517Z,27.50
2019-06-01T17:39:22.925Z,27.40
2019-06-01T17:41:52.184Z,27.40
2019-06-01T17:44:22.200Z,27.40
2019-06-01T17:46:54.056Z,27.40
2019-06-01T17:49:33.786Z,27.40
2019-06-01T17:52:03.719Z,27.30
2019-06-01T17:54:33.106Z,27.30
2019-06-01T17:57:05.024Z,27.20
2019-06-01T17:59:34.431Z,27.20
2019-06-01T18:02:05.778Z,27.20
2019-06-01T18:04:34.899Z,27.10
2019-06-01T18:07:05.677Z,27.00
2019-06-01T18:09:34.936Z,26.90
2019-06-01T18:12:03.997Z,26.90
2019-06-01T18:14:33.502Z,26.80
2019-06-01T18:17:04.023Z,26.80
2019-06-01T18:19:34.737Z,26.70
2019-06-01T18:22:04.762Z,26.70
2019-06-01T18:24:34.354Z,26.60
2019-06-01T18:27:04.338Z,26.60
2019-06-01T18:29:33.644Z,26.50
2019-06-01T18:32:03.340Z,26.50
2019-06-01T18:34:32.559Z,26.40
2019-06-01T18:37:03.051Z,26.40
2019-06-01T18:39:35.285Z,26.30
2019-06-01T18:42:04.657Z,26.30
2019-06-01T18:44:35.834Z,26.30
2019-06-01T18:47:05.709Z,26.20
2019-06-01T18:49:35.636Z,26.20
2019-06-01T18:52:08.548Z,26.20
2019-06-01T18:54:43.601Z,26.10
2019-06-01T18:57:19.353Z,26.10
2019-06-01T18:59:46.863Z,26.00
2019-06-01T19:02:16.251Z,26.00
2019-06-01T19:04:45.982Z,26.00
2019-06-01T19:07:17.170Z,26.00
2019-06-01T19:09:46.907Z,25.90
2019-06-01T19:12:16.267Z,25.90
2019-06-01T19:14:46.115Z,25.90
2019-06-01T19:17:16.567Z,25.80
2019-06-01T19:19:47.776Z,25.70
2019-06-01T19:22:20.166Z,25.70
2019-06-01T19:24:49.174Z,25.70
2019-06-01T19:27:18.362Z,25.60
2019-06-01T19:29:49.403Z,25.60
2019-06-01T19:32:21.201Z,25.50
2019-06-01T19:34:49.963Z,25.50
2019-06-01T19:37:21.244Z,25.50
2019-06-01T19:39:51.668Z,25.40
2019-06-01T19:42:23.893Z,25.40
2019-06-01T19:44:53.273Z,25.40
2019-06-01T19:47:24.287Z,25.40
2019-06-01T19:49:53.780Z,25.40
2019-06-01T19:52:23.375Z,25.30
2019-06-01T19:54:52.699Z,25.30
2019-06-01T19:57:23.900Z,25.30
2019-06-01T19:59:53.658Z,25.20
2019-06-01T20:02:33.282Z,25.20
2019-06-01T20:04:54.903Z,25.20
2019-06-01T20:07:25.393Z,25.10
2019-06-01T20:09:54.925Z,25.10
2019-06-01T20:12:25.815Z,25.10
2019-06-01T20:14:56.904Z,25.10
2019-06-01T20:17:26.713Z,25.10
2019-06-01T20:19:56.594Z,25.10
2019-06-01T20:22:27.624Z,25.00
2019-06-01T20:24:56.938Z,25.00
2019-06-01T20:27:31.217Z,25.00
2019-06-01T20:30:01.059Z,24.90
2019-06-01T20:32:30.373Z,24.90
2019-06-01T20:35:04.374Z,24.90
2019-06-01T20:37:35.145Z,24.80
2019-06-01T20:40:04.875Z,24.80
2019-06-01T20:42:34.245Z,24.80
2019-06-01T20:45:16.597Z,24.80
2019-06-01T20:47:46.024Z,24.70
2019-06-01T20:50:16.704Z,24.70
2019-06-01T20:52:46.026Z,24.70
2019-06-01T20:55:17.379Z,24.60
2019-06-01T20:57:48.116Z,24.60
2019-06-01T21:00:17.916Z,24.60
2019-06-01T21:02:47.407Z,24.60
2019-06-01T21:05:17.779Z,24.50
2019-06-01T21:07:50.172Z,24.50
2019-06-01T21:10:22.177Z,24.50
2019-06-01T21:12:51.902Z,24.50
2019-06-01T21:15:21.759Z,24.40
2019-06-01T21:17:53.959Z,24.40
2019-06-01T21:20:28.285Z,24.40
2019-06-01T21:22:54.722Z,24.40
2019-06-01T21:25:37.608Z,24.40
2019-06-01T21:28:23.627Z,24.30
2019-06-01T21:30:53.170Z,24.30
2019-06-01T21:33:25.380Z,24.30
2019-06-01T21:35:56.553Z,24.30
2019-06-01T21:38:29.690Z,24.30
2019-06-01T21:41:01.160Z,24.30
2019-06-01T21:43:35.144Z,24.30
2019-06-01T21:46:21.648Z,24.20
2019-06-01T21:48:53.470Z,24.20
2019-06-01T21:51:26.039Z,24.20
2019-06-01T21:53:56.494Z,24.10
2019-06-01T21:56:26.695Z,24.20
2019-06-01T21:58:57.970Z,24.10
2019-06-01T22:01:33.045Z,24.10
2019-06-01T22:04:27.925Z,24.10
2019-06-01T22:07:03.515Z,24.00
2019-06-01T22:09:33.748Z,24.00
2019-06-01T22:12:07.736Z,24.00
2019-06-01T22:14:37.973Z,24.00
2019-06-01T22:17:10.694Z,24.00
2019-06-01T22:19:39.890Z,24.00
2019-06-01T22:22:08.980Z,23.90
2019-06-01T22:24:38.369Z,23.90
2019-06-01T22:27:07.611Z,23.80
2019-06-01T22:29:37.199Z,23.80
2019-06-01T22:32:06.428Z,23.80
2019-06-01T22:34:37.213Z,23.80
2019-06-01T22:37:06.502Z,23.80
2019-06-01T22:39:35.798Z,23.70
2019-06-01T22:42:05.104Z,23.70
2019-06-01T22:44:38.220Z,23.70
2019-06-01T22:47:12.210Z,23.60
2019-06-01T22:49:41.403Z,23.60
2019-06-01T22:52:10.836Z,23.60
2019-06-01T22:54:44.781Z,23.60
2019-06-01T22:57:14.085Z,23.50
2019-06-01T22:59:43.202Z,23.50
2019-06-01T23:02:14.077Z,23.50
2019-06-01T23:04:43.342Z,23.50
2019-06-01T23:07:12.493Z,23.40
2019-06-01T23:09:42.710Z,23.40
2019-06-01T23:12:11.939Z,23.40
2019-06-01T23:14:41.044Z,23.40
2019-06-01T23:17:10.257Z,23.30
2019-06-01T23:19:39.702Z,23.40
2019-06-01T23:22:09.014Z,23.30
2019-06-01T23:24:38.299Z,23.30
2019-06-01T23:27:22.053Z,23.30
2019-06-01T23:29:51.460Z,23.20
2019-06-01T23:32:24.498Z,23.20
2019-06-01T23:34:56.611Z,23.20
2019-06-01T23:37:26.688Z,23.10
2019-06-01T23:39:56.226Z,23.10
2019-06-01T23:42:26.754Z,23.10
2019-06-01T23:44:56.403Z,23.10
2019-06-01T23:47:29.353Z,23.00
2019-06-01T23:49:58.940Z,23.00
2019-06-01T23:52:29.604Z,23.00
2019-06-01T23:55:03.674Z,23.00
2019-06-01T23:57:34.087Z,22.90
